createdAt,value
2023-01-25T00:02:59.174Z,0.00
2023-01-25T00:09:01.106Z,0.00
2023-01-25T00:15:02.924Z,-0.10
2023-01-25T00:21:22.090Z,0.00
2023-01-25T00:27:23.916Z,0.10
2023-01-25T00:33:37.630Z,0.00
2023-01-25T00:39:39.617Z,0.00
2023-01-25T00:45:41.442Z,-0.10
2023-01-25T00:51:43.604Z,-0.10
2023-01-25T00:57:45.389Z,-0.10
2023-01-25T01:03:47.284Z,-0.10
2023-01-25T01:09:49.183Z,-0.20
2023-01-25T01:15:51.236Z,-0.20
2023-01-25T01:21:53.122Z,-0.20
2023-01-25T01:27:54.888Z,-0.20
2023-01-25T01:33:58.458Z,-0.10
2023-01-25T01:40:00.345Z,-0.20
2023-01-25T01:46:04.099Z,-0.20
2023-01-25T01:52:12.991Z,-0.10
2023-01-25T01:58:14.957Z,-0.10
2023-01-25T02:04:19.925Z,-0.10
2023-01-25T02:10:23.137Z,-0.10
2023-01-25T02:16:27.605Z,-0.10
2023-01-25T02:23:06.847Z,-0.10
2023-01-25T02:29:10.248Z,-0.10
2023-01-25T02:35:23.506Z,0.00
2023-01-25T02:41:37.746Z,-0.10
2023-01-25T02:47:39.572Z,-0.10
2023-01-25T02:53:41.614Z,-0.10
2023-01-25T02:59:43.535Z,-0.10
2023-01-25T03:05:45.364Z,-0.20
2023-01-25T03:11:47.305Z,-0.20
2023-01-25T03:17:49.189Z,-0.10
2023-01-25T03:24:01.796Z,0.00
2023-01-25T03:30:04.191Z,-0.10
2023-01-25T03:36:06.847Z,-0.20
2023-01-25T03:42:08.949Z,-0.20
2023-01-25T03:48:10.847Z,-0.10
2023-01-25T03:54:12.737Z,-0.10
2023-01-25T04:00:15.397Z,-0.10
2023-01-25T04:06:17.343Z,0.00
2023-01-25T04:12:19.272Z,0.00
2023-01-25T04:18:22.013Z,0.00
2023-01-25T04:24:23.849Z,0.00
2023-01-25T04:30:25.882Z,0.00
2023-01-25T04:36:27.787Z,0.00
2023-01-25T04:42:29.838Z,0.10
2023-01-25T04:48:32.733Z,0.00
2023-01-25T04:54:34.540Z,0.00
2023-01-25T05:00:36.611Z,0.00
2023-01-25T05:06:38.511Z,0.00
2023-01-25T05:12:40.371Z,0.00
2023-01-25T05:18:48.390Z,0.00
2023-01-25T05:24:51.018Z,0.00
2023-01-25T05:30:53.139Z,0.00
2023-01-25T05:36:55.104Z,0.00
2023-01-25T05:42:58.763Z,0.10
2023-01-25T05:49:00.736Z,0.10
2023-01-25T05:55:02.563Z,0.10
2023-01-25T06:01:07.890Z,0.10
2023-01-25T06:07:09.788Z,0.10
2023-01-25T06:13:11.799Z,0.00
2023-01-25T06:19:14.367Z,0.10
2023-01-25T06:25:16.327Z,0.10
2023-01-25T06:31:18.759Z,0.00
2023-01-25T06:37:23.063Z,0.00
2023-01-25T06:43:24.967Z,0.00
2023-01-25T06:49:26.787Z,0.00
2023-01-25T06:55:28.617Z,0.00
2023-01-25T07:01:30.741Z,0.00
2023-01-25T07:07:32.612Z,-0.10
2023-01-25T07:13:35.081Z,-0.10
2023-01-25T07:19:36.872Z,-0.20
2023-01-25T07:25:44.792Z,-0.20
2023-01-25T07:31:46.649Z,-0.20
2023-01-25T07:37:48.381Z,-0.10
2023-01-25T07:43:50.203Z,-0.20
2023-01-25T07:49:51.938Z,-0.20
2023-01-25T07:55:53.861Z,-0.20
2023-01-25T08:01:56.056Z,-0.20
2023-01-25T08:07:58.076Z,-0.20
2023-01-25T08:14:02.052Z,-0.20
2023-01-25T08:20:05.034Z,-0.20
2023-01-25T08:26:09.199Z,-0.20
2023-01-25T08:32:11.263Z,-0.20
2023-01-25T08:38:13.039Z,-0.20
2023-01-25T08:44:15.361Z,-0.10
2023-01-25T08:50:17.614Z,-0.10
2023-01-25T08:56:19.535Z,-0.10
2023-01-25T09:02:21.810Z,-0.10
2023-01-25T09:08:23.864Z,0.00
2023-01-25T09:14:25.797Z,0.10
2023-01-25T09:20:28.311Z,0.10
2023-01-25T09:26:31.537Z,0.00
2023-01-25T09:32:34.251Z,0.00
2023-01-25T09:38:36.714Z,0.20
2023-01-25T09:44:41.358Z,0.20
2023-01-25T09:51:02.528Z,0.20
2023-01-25T09:57:04.815Z,0.20
2023-01-25T10:03:25.768Z,0.00
2023-01-25T10:09:33.619Z,0.00
2023-01-25T10:15:44.115Z,0.00
2023-01-25T10:21:49.821Z,-0.10
2023-01-25T10:28:19.796Z,0.10
2023-01-25T10:34:34.145Z,0.20
2023-01-25T10:40:44.457Z,0.10
2023-01-25T10:46:52.250Z,0.10
2023-01-25T10:52:58.925Z,0.10
2023-01-25T10:59:28.503Z,0.10
2023-01-25T11:05:41.933Z,0.10
2023-01-25T11:11:43.960Z,0.20
2023-01-25T11:17:45.933Z,0.20
2023-01-25T11:24:09.346Z,0.10
2023-01-25T11:30:21.918Z,0.30
2023-01-25T11:36:32.780Z,0.30
2023-01-25T11:42:42.859Z,0.20
2023-01-25T11:49:26.155Z,0.10
2023-01-25T11:55:48.877Z,0.10
2023-01-25T12:02:08.826Z,0.10
2023-01-25T12:08:39.980Z,0.10
2023-01-25T12:15:12.253Z,0.10
2023-01-25T12:21:32.770Z,0.10
2023-01-25T12:27:57.836Z,0.10
2023-01-25T12:34:03.506Z,0.20
2023-01-25T12:40:22.563Z,0.10
2023-01-25T12:46:30.884Z,0.10
2023-01-25T12:52:41.211Z,0.00
2023-01-25T12:58:57.028Z,0.20
2023-01-25T13:05:30.095Z,-0.10
2023-01-25T13:11:43.714Z,-0.10
2023-01-25T13:17:45.685Z,-0.20
2023-01-25T13:24:12.529Z,-0.20
2023-01-25T13:30:34.800Z,-0.10
2023-01-25T13:36:45.686Z,-0.20
2023-01-25T13:43:03.856Z,-0.10
2023-01-25T13:49:14.897Z,-0.40
2023-01-25T13:55:20.301Z,-0.50
2023-01-25T14:01:23.841Z,-0.40
2023-01-25T14:07:34.053Z,-0.40
2023-01-25T14:13:35.850Z,-0.50
2023-01-25T14:19:40.485Z,-0.60
2023-01-25T14:25:42.295Z,-0.70
2023-01-25T14:31:46.338Z,-0.70
2023-01-25T14:37:48.226Z,-0.60
2023-01-25T14:43:53.829Z,-0.70
2023-01-25T14:49:55.575Z,-0.60
2023-01-25T14:55:58.734Z,-0.50
2023-01-25T15:02:23.464Z,-0.50
2023-01-25T15:08:35.842Z,-0.60
2023-01-25T15:14:52.238Z,-0.60
2023-01-25T15:20:54.110Z,-0.60
2023-01-25T15:26:56.424Z,-0.60
2023-01-25T15:33:00.691Z,-0.60
2023-01-25T15:39:02.621Z,-0.60
2023-01-25T15:45:06.841Z,-0.70
2023-01-25T15:51:10.713Z,-0.70
2023-01-25T15:57:34.601Z,-0.70
2023-01-25T16:03:36.475Z,-0.80
2023-01-25T16:09:38.211Z,-0.70
2023-01-25T16:15:40.909Z,-0.80
2023-01-25T16:21:43.259Z,-0.90
2023-01-25T16:27:45.488Z,-0.90
2023-01-25T16:33:47.391Z,-1.10
2023-01-25T16:39:50.243Z,-1.20
2023-01-25T16:45:57.760Z,-1.20
2023-01-25T16:52:02.763Z,-1.20
2023-01-25T16:58:04.617Z,-1.30
2023-01-25T17:04:07.352Z,-1.30
2023-01-25T17:10:11.196Z,-1.40
2023-01-25T17:16:13.794Z,-1.40
2023-01-25T17:22:15.841Z,-1.30
2023-01-25T17:28:17.747Z,-1.20
2023-01-25T17:34:20.240Z,-1.30
2023-01-25T17:40:22.332Z,-1.30
2023-01-25T17:46:30.131Z,-1.30
2023-01-25T17:52:32.026Z,-1.20
2023-01-25T17:58:37.086Z,-1.20
2023-01-25T18:04:39.401Z,-1.30
2023-01-25T18:10:41.421Z,-1.40
2023-01-25T18:16:43.515Z,-1.40
2023-01-25T18:22:45.443Z,-1.40
2023-01-25T18:28:47.481Z,-1.60
2023-01-25T18:34:49.623Z,-1.50
2023-01-25T18:40:51.819Z,-1.30
2023-01-25T18:46:53.657Z,-1.40
2023-01-25T18:52:55.953Z,-1.50
2023-01-25T18:58:58.787Z,-1.40
2023-01-25T19:05:00.829Z,-1.60
2023-01-25T19:11:08.775Z,-1.50
2023-01-25T19:17:10.717Z,-1.60
2023-01-25T19:23:12.663Z,-1.70
2023-01-25T19:29:15.491Z,-1.80
2023-01-25T19:35:17.468Z,-1.60
2023-01-25T19:41:25.353Z,-1.60
2023-01-25T19:47:27.407Z,-1.50
2023-01-25T19:53:29.514Z,-1.50
2023-01-25T19:59:31.664Z,-1.50
2023-01-25T20:05:33.692Z,-1.50
2023-01-25T20:11:35.751Z,-1.50
2023-01-25T20:17:37.737Z,-1.60
2023-01-25T20:23:44.073Z,-1.50
2023-01-25T20:29:46.576Z,-1.50
2023-01-25T20:35:50.145Z,-1.50
2023-01-25T20:41:53.821Z,-1.50
2023-01-25T20:47:55.841Z,-1.50
2023-01-25T20:53:58.147Z,-1.60
2023-01-25T21:00:00.172Z,-1.50
2023-01-25T21:06:02.056Z,-1.60
2023-01-25T21:12:03.915Z,-1.60
2023-01-25T21:18:05.953Z,-1.70
2023-01-25T21:24:09.102Z,-1.80
2023-01-25T21:30:11.803Z,-1.80
2023-01-25T21:36:15.416Z,-1.80
2023-01-25T21:42:17.258Z,-1.70
2023-01-25T21:48:39.002Z,-1.80
2023-01-25T21:54:40.947Z,-1.80
2023-01-25T22:00:42.884Z,-1.80
2023-01-25T22:06:45.612Z,-1.80
2023-01-25T22:12:50.792Z,-1.80
2023-01-25T22:18:53.177Z,-1.90
2023-01-25T22:24:56.807Z,-1.90
2023-01-25T22:30:58.743Z,-1.90
2023-01-25T22:37:00.683Z,-1.90
2023-01-25T22:43:02.586Z,-1.80
2023-01-25T22:49:04.918Z,-1.80
2023-01-25T22:55:07.339Z,-1.60
2023-01-25T23:01:11.053Z,-1.60
2023-01-25T23:07:13.003Z,-1.80
2023-01-25T23:13:14.908Z,-1.90
2023-01-25T23:19:16.892Z,-1.90
2023-01-25T23:25:18.902Z,-1.90
2023-01-25T23:31:22.533Z,-1.90
2023-01-25T23:37:24.726Z,-1.90
2023-01-25T23:43:26.593Z,-2.00
2023-01-25T23:49:28.417Z,-1.90
2023-01-25T23:55:30.267Z,-1.90
